sensor_id;sensor_type;location;lat;lon;timestamp;P1;durP1;ratioP1;P2;durP2;ratioP2
5622;SDS011;2833;50.432;10.706;2022-12-17T00:00:05;28.40;;;14.50;;
5622;SDS011;2833;50.432;10.706;2022-12-17T00:02:48;24.13;;;14.50;;
5622;SDS011;2833;50.432;10.706;2022-12-17T00:05:32;25.13;;;14.40;;
5622;SDS011;2833;50.432;10.706;2022-12-17T00:08:16;25.80;;;13.30;;
5622;SDS011;2833;50.432;10.706;2022-12-17T00:11:00;25.20;;;14.17;;
5622;SDS011;2833;50.432;10.706;2022-12-17T00:13:44;26.20;;;14.37;;
5622;SDS011;2833;50.432;10.706;2022-12-17T00:16:28;28.77;;;14.40;;
5622;SDS011;2833;50.432;10.706;2022-12-17T00:19:12;28.93;;;15.57;;
5622;SDS011;2833;50.432;10.706;2022-12-17T00:21:56;23.60;;;14.23;;
5622;SDS011;2833;50.432;10.706;2022-12-17T00:24:40;24.50;;;13.90;;
5622;SDS011;2833;50.432;10.706;2022-12-17T00:27:23;28.63;;;15.13;;
5622;SDS011;2833;50.432;10.706;2022-12-17T00:30:08;23.37;;;13.10;;
5622;SDS011;2833;50.432;10.706;2022-12-17T00:32:51;25.03;;;12.77;;
5622;SDS011;2833;50.432;10.706;2022-12-17T00:35:35;20.10;;;12.00;;
5622;SDS011;2833;50.432;10.706;2022-12-17T00:38:19;22.87;;;12.27;;
5622;SDS011;2833;50.432;10.706;2022-12-17T00:41:03;25.33;;;12.90;;
5622;SDS011;2833;50.432;10.706;2022-12-17T00:43:47;21.00;;;12.70;;
5622;SDS011;2833;50.432;10.706;2022-12-17T00:46:31;19.53;;;11.60;;
5622;SDS011;2833;50.432;10.706;2022-12-17T00:49:15;25.43;;;14.33;;
5622;SDS011;2833;50.432;10.706;2022-12-17T00:51:59;21.50;;;12.00;;
5622;SDS011;2833;50.432;10.706;2022-12-17T00:54:43;23.57;;;12.03;;
5622;SDS011;2833;50.432;10.706;2022-12-17T00:57:27;20.30;;;12.87;;
5622;SDS011;2833;50.432;10.706;2022-12-17T01:00:11;21.23;;;12.20;;
5622;SDS011;2833;50.432;10.706;2022-12-17T01:03:03;19.47;;;12.60;;
5622;SDS011;2833;50.432;10.706;2022-12-17T01:05:46;28.30;;;16.33;;
5622;SDS011;2833;50.432;10.706;2022-12-17T01:08:30;21.27;;;14.40;;
5622;SDS011;2833;50.432;10.706;2022-12-17T01:11:14;20.20;;;12.50;;
5622;SDS011;2833;50.432;10.706;2022-12-17T01:13:58;19.83;;;12.13;;
5622;SDS011;2833;50.432;10.706;2022-12-17T01:16:42;19.53;;;11.87;;
5622;SDS011;2833;50.432;10.706;2022-12-17T01:19:26;20.50;;;12.17;;
5622;SDS011;2833;50.432;10.706;2022-12-17T01:22:10;22.17;;;12.90;;
5622;SDS011;2833;50.432;10.706;2022-12-17T01:24:54;25.53;;;14.17;;
5622;SDS011;2833;50.432;10.706;2022-12-17T01:27:38;17.27;;;10.10;;
5622;SDS011;2833;50.432;10.706;2022-12-17T01:30:21;16.00;;;9.90;;
5622;SDS011;2833;50.432;10.706;2022-12-17T01:33:06;17.00;;;9.57;;
5622;SDS011;2833;50.432;10.706;2022-12-17T01:35:57;15.80;;;9.90;;
5622;SDS011;2833;50.432;10.706;2022-12-17T01:38:41;17.80;;;9.93;;
5622;SDS011;2833;50.432;10.706;2022-12-17T01:41:25;19.83;;;9.80;;
5622;SDS011;2833;50.432;10.706;2022-12-17T01:47:11;14.23;;;8.70;;
5622;SDS011;2833;50.432;10.706;2022-12-17T01:49:55;13.60;;;8.17;;
5622;SDS011;2833;50.432;10.706;2022-12-17T01:52:39;15.47;;;9.23;;
5622;SDS011;2833;50.432;10.706;2022-12-17T01:55:27;18.80;;;10.67;;
5622;SDS011;2833;50.432;10.706;2022-12-17T01:58:11;19.27;;;11.47;;
5622;SDS011;2833;50.432;10.706;2022-12-17T02:00:55;19.17;;;10.30;;
5622;SDS011;2833;50.432;10.706;2022-12-17T02:03:39;16.97;;;10.10;;
5622;SDS011;2833;50.432;10.706;2022-12-17T02:06:24;17.10;;;11.03;;
5622;SDS011;2833;50.432;10.706;2022-12-17T02:09:52;19.43;;;11.20;;
5622;SDS011;2833;50.432;10.706;2022-12-17T02:12:16;18.17;;;10.90;;
5622;SDS011;2833;50.432;10.706;2022-12-17T02:15:20;19.33;;;11.47;;
5622;SDS011;2833;50.432;10.706;2022-12-17T02:18:07;20.70;;;11.13;;
5622;SDS011;2833;50.432;10.706;2022-12-17T02:20:53;17.23;;;10.30;;
5622;SDS011;2833;50.432;10.706;2022-12-17T02:26:44;19.50;;;10.10;;
5622;SDS011;2833;50.432;10.706;2022-12-17T02:29:30;20.63;;;10.20;;
5622;SDS011;2833;50.432;10.706;2022-12-17T02:32:15;17.00;;;10.13;;
5622;SDS011;2833;50.432;10.706;2022-12-17T02:35:00;16.27;;;9.50;;
5622;SDS011;2833;50.432;10.706;2022-12-17T02:37:48;15.03;;;9.60;;
5622;SDS011;2833;50.432;10.706;2022-12-17T02:40:32;18.13;;;10.53;;
5622;SDS011;2833;50.432;10.706;2022-12-17T02:43:16;16.67;;;10.33;;
5622;SDS011;2833;50.432;10.706;2022-12-17T02:46:01;17.43;;;10.23;;
5622;SDS011;2833;50.432;10.706;2022-12-17T02:48:45;17.20;;;9.10;;
5622;SDS011;2833;50.432;10.706;2022-12-17T02:51:29;19.20;;;11.10;;
5622;SDS011;2833;50.432;10.706;2022-12-17T02:54:13;15.67;;;9.03;;
5622;SDS011;2833;50.432;10.706;2022-12-17T02:56:57;18.90;;;9.87;;
5622;SDS011;2833;50.432;10.706;2022-12-17T02:59:41;14.37;;;8.90;;
5622;SDS011;2833;50.432;10.706;2022-12-17T03:02:25;13.93;;;8.97;;
5622;SDS011;2833;50.432;10.706;2022-12-17T03:05:08;14.53;;;9.13;;
5622;SDS011;2833;50.432;10.706;2022-12-17T03:07:52;15.50;;;9.10;;
5622;SDS011;2833;50.432;10.706;2022-12-17T03:10:36;16.77;;;9.30;;
5622;SDS011;2833;50.432;10.706;2022-12-17T03:13:24;15.40;;;9.17;;
5622;SDS011;2833;50.432;10.706;2022-12-17T03:16:09;19.30;;;9.83;;
5622;SDS011;2833;50.432;10.706;2022-12-17T03:18:53;17.07;;;9.53;;
5622;SDS011;2833;50.432;10.706;2022-12-17T03:21:37;16.20;;;9.20;;
5622;SDS011;2833;50.432;10.706;2022-12-17T03:24:21;15.87;;;9.40;;
5622;SDS011;2833;50.432;10.706;2022-12-17T03:27:05;14.93;;;9.97;;
5622;SDS011;2833;50.432;10.706;2022-12-17T03:29:49;19.03;;;9.67;;
5622;SDS011;2833;50.432;10.706;2022-12-17T03:32:33;17.23;;;9.80;;
5622;SDS011;2833;50.432;10.706;2022-12-17T03:35:17;18.33;;;9.80;;
5622;SDS011;2833;50.432;10.706;2022-12-17T03:38:01;16.10;;;9.13;;
5622;SDS011;2833;50.432;10.706;2022-12-17T03:40:49;14.60;;;9.50;;
5622;SDS011;2833;50.432;10.706;2022-12-17T03:43:33;15.70;;;8.97;;
5622;SDS011;2833;50.432;10.706;2022-12-17T03:46:17;15.10;;;9.00;;
5622;SDS011;2833;50.432;10.706;2022-12-17T03:49:01;18.10;;;9.77;;
5622;SDS011;2833;50.432;10.706;2022-12-17T03:51:45;17.07;;;8.23;;
5622;SDS011;2833;50.432;10.706;2022-12-17T03:54:29;13.63;;;7.93;;
5622;SDS011;2833;50.432;10.706;2022-12-17T03:57:13;14.37;;;9.03;;
5622;SDS011;2833;50.432;10.706;2022-12-17T03:59:57;15.67;;;7.77;;
5622;SDS011;2833;50.432;10.706;2022-12-17T04:02:41;14.67;;;7.90;;
5622;SDS011;2833;50.432;10.706;2022-12-17T04:05:25;15.60;;;8.47;;
5622;SDS011;2833;50.432;10.706;2022-12-17T04:08:08;17.87;;;8.67;;
5622;SDS011;2833;50.432;10.706;2022-12-17T04:10:52;15.63;;;8.80;;
5622;SDS011;2833;50.432;10.706;2022-12-17T04:13:36;12.07;;;8.07;;
5622;SDS011;2833;50.432;10.706;2022-12-17T04:16:20;17.20;;;8.57;;
5622;SDS011;2833;50.432;10.706;2022-12-17T04:19:04;15.67;;;7.80;;
5622;SDS011;2833;50.432;10.706;2022-12-17T04:21:48;14.77;;;8.50;;
5622;SDS011;2833;50.432;10.706;2022-12-17T04:24:34;14.00;;;8.20;;
5622;SDS011;2833;50.432;10.706;2022-12-17T04:27:17;17.97;;;9.30;;
5622;SDS011;2833;50.432;10.706;2022-12-17T04:30:01;14.03;;;9.00;;
5622;SDS011;2833;50.432;10.706;2022-12-17T04:32:45;13.53;;;8.20;;
5622;SDS011;2833;50.432;10.706;2022-12-17T04:35:29;15.60;;;8.97;;
5622;SDS011;2833;50.432;10.706;2022-12-17T04:38:13;17.37;;;8.80;;
5622;SDS011;2833;50.432;10.706;2022-12-17T04:40:57;16.67;;;10.00;;
5622;SDS011;2833;50.432;10.706;2022-12-17T04:43:41;15.53;;;9.30;;
5622;SDS011;2833;50.432;10.706;2022-12-17T04:46:25;14.13;;;8.33;;
5622;SDS011;2833;50.432;10.706;2022-12-17T04:49:09;16.17;;;9.07;;
5622;SDS011;2833;50.432;10.706;2022-12-17T04:51:53;15.80;;;9.13;;
5622;SDS011;2833;50.432;10.706;2022-12-17T04:54:37;19.13;;;9.90;;
5622;SDS011;2833;50.432;10.706;2022-12-17T04:57:20;13.27;;;7.90;;
5622;SDS011;2833;50.432;10.706;2022-12-17T05:00:04;19.50;;;10.20;;
5622;SDS011;2833;50.432;10.706;2022-12-17T05:02:48;14.90;;;8.93;;
5622;SDS011;2833;50.432;10.706;2022-12-17T05:05:32;14.90;;;8.67;;
5622;SDS011;2833;50.432;10.706;2022-12-17T05:08:16;12.40;;;7.20;;
5622;SDS011;2833;50.432;10.706;2022-12-17T05:11:03;12.13;;;7.70;;
5622;SDS011;2833;50.432;10.706;2022-12-17T05:13:48;16.20;;;8.10;;
5622;SDS011;2833;50.432;10.706;2022-12-17T05:16:32;14.77;;;8.30;;
5622;SDS011;2833;50.432;10.706;2022-12-17T05:19:15;12.90;;;7.80;;
5622;SDS011;2833;50.432;10.706;2022-12-17T05:21:59;14.40;;;8.30;;
5622;SDS011;2833;50.432;10.706;2022-12-17T05:24:43;13.60;;;7.80;;
5622;SDS011;2833;50.432;10.706;2022-12-17T05:27:27;13.90;;;8.70;;
5622;SDS011;2833;50.432;10.706;2022-12-17T05:30:11;14.97;;;8.30;;
5622;SDS011;2833;50.432;10.706;2022-12-17T05:32:59;14.33;;;8.27;;
5622;SDS011;2833;50.432;10.706;2022-12-17T05:35:43;14.77;;;8.13;;
5622;SDS011;2833;50.432;10.706;2022-12-17T05:38:27;16.67;;;10.10;;
5622;SDS011;2833;50.432;10.706;2022-12-17T05:41:11;12.70;;;8.03;;
5622;SDS011;2833;50.432;10.706;2022-12-17T05:43:55;20.60;;;12.13;;
5622;SDS011;2833;50.432;10.706;2022-12-17T05:46:39;24.10;;;14.07;;
5622;SDS011;2833;50.432;10.706;2022-12-17T05:49:23;20.13;;;11.30;;
5622;SDS011;2833;50.432;10.706;2022-12-17T05:52:07;16.47;;;9.10;;
5622;SDS011;2833;50.432;10.706;2022-12-17T05:54:51;17.00;;;9.20;;
5622;SDS011;2833;50.432;10.706;2022-12-17T05:57:35;15.00;;;9.20;;
5622;SDS011;2833;50.432;10.706;2022-12-17T06:00:19;17.27;;;10.10;;
5622;SDS011;2833;50.432;10.706;2022-12-17T06:03:03;18.27;;;10.47;;
5622;SDS011;2833;50.432;10.706;2022-12-17T06:05:47;28.60;;;14.60;;
5622;SDS011;2833;50.432;10.706;2022-12-17T06:08:31;103.80;;;50.20;;
5622;SDS011;2833;50.432;10.706;2022-12-17T06:11:14;59.93;;;32.53;;
5622;SDS011;2833;50.432;10.706;2022-12-17T06:13:58;50.13;;;27.50;;
5622;SDS011;2833;50.432;10.706;2022-12-17T06:16:42;45.73;;;24.90;;
5622;SDS011;2833;50.432;10.706;2022-12-17T06:19:26;37.93;;;19.30;;
5622;SDS011;2833;50.432;10.706;2022-12-17T06:22:10;34.17;;;18.53;;
5622;SDS011;2833;50.432;10.706;2022-12-17T06:24:54;28.50;;;15.30;;
5622;SDS011;2833;50.432;10.706;2022-12-17T06:27:38;28.03;;;15.77;;
5622;SDS011;2833;50.432;10.706;2022-12-17T06:30:22;29.30;;;14.23;;
5622;SDS011;2833;50.432;10.706;2022-12-17T06:33:07;30.20;;;14.50;;
5622;SDS011;2833;50.432;10.706;2022-12-17T06:35:52;27.60;;;14.03;;
5622;SDS011;2833;50.432;10.706;2022-12-17T06:38:36;29.57;;;13.40;;
5622;SDS011;2833;50.432;10.706;2022-12-17T06:41:20;16.40;;;8.70;;
5622;SDS011;2833;50.432;10.706;2022-12-17T06:44:04;17.90;;;8.80;;
5622;SDS011;2833;50.432;10.706;2022-12-17T06:46:48;17.70;;;9.60;;
5622;SDS011;2833;50.432;10.706;2022-12-17T06:49:32;18.70;;;9.60;;
5622;SDS011;2833;50.432;10.706;2022-12-17T06:52:15;17.97;;;9.53;;
5622;SDS011;2833;50.432;10.706;2022-12-17T06:54:59;18.17;;;9.37;;
5622;SDS011;2833;50.432;10.706;2022-12-17T06:57:43;17.03;;;9.17;;
5622;SDS011;2833;50.432;10.706;2022-12-17T07:00:27;15.27;;;8.67;;
5622;SDS011;2833;50.432;10.706;2022-12-17T07:03:12;14.27;;;8.00;;
5622;SDS011;2833;50.432;10.706;2022-12-17T07:05:58;15.80;;;8.47;;
5622;SDS011;2833;50.432;10.706;2022-12-17T07:08:42;15.57;;;9.13;;
5622;SDS011;2833;50.432;10.706;2022-12-17T07:11:26;18.27;;;8.80;;
5622;SDS011;2833;50.432;10.706;2022-12-17T07:14:10;31.97;;;15.77;;
5622;SDS011;2833;50.432;10.706;2022-12-17T07:16:53;16.03;;;9.17;;
5622;SDS011;2833;50.432;10.706;2022-12-17T07:19:38;10.97;;;6.97;;
5622;SDS011;2833;50.432;10.706;2022-12-17T07:22:21;16.60;;;8.57;;
5622;SDS011;2833;50.432;10.706;2022-12-17T07:25:06;11.40;;;7.30;;
5622;SDS011;2833;50.432;10.706;2022-12-17T07:27:53;15.83;;;8.93;;
5622;SDS011;2833;50.432;10.706;2022-12-17T07:30:37;13.53;;;7.80;;
5622;SDS011;2833;50.432;10.706;2022-12-17T07:33:21;14.67;;;7.73;;
5622;SDS011;2833;50.432;10.706;2022-12-17T07:36:05;17.80;;;8.10;;
5622;SDS011;2833;50.432;10.706;2022-12-17T07:38:49;19.30;;;8.30;;
5622;SDS011;2833;50.432;10.706;2022-12-17T07:41:33;17.33;;;8.90;;
5622;SDS011;2833;50.432;10.706;2022-12-17T07:44:17;27.87;;;13.33;;
5622;SDS011;2833;50.432;10.706;2022-12-17T07:47:08;21.13;;;8.90;;
5622;SDS011;2833;50.432;10.706;2022-12-17T07:49:52;54.67;;;24.27;;
5622;SDS011;2833;50.432;10.706;2022-12-17T07:52:36;18.53;;;9.60;;
5622;SDS011;2833;50.432;10.706;2022-12-17T07:55:20;18.30;;;9.23;;
5622;SDS011;2833;50.432;10.706;2022-12-17T07:58:05;28.53;;;12.43;;
5622;SDS011;2833;50.432;10.706;2022-12-17T08:00:49;25.03;;;11.60;;
5622;SDS011;2833;50.432;10.706;2022-12-17T08:03:33;23.13;;;10.77;;
5622;SDS011;2833;50.432;10.706;2022-12-17T08:06:17;25.37;;;11.80;;
5622;SDS011;2833;50.432;10.706;2022-12-17T08:09:00;23.40;;;9.80;;
5622;SDS011;2833;50.432;10.706;2022-12-17T08:11:44;34.20;;;17.00;;
5622;SDS011;2833;50.432;10.706;2022-12-17T08:14:28;28.87;;;13.67;;
5622;SDS011;2833;50.432;10.706;2022-12-17T08:17:12;32.00;;;16.07;;
5622;SDS011;2833;50.432;10.706;2022-12-17T08:19:56;30.87;;;15.93;;
5622;SDS011;2833;50.432;10.706;2022-12-17T08:22:40;26.77;;;11.93;;
5622;SDS011;2833;50.432;10.706;2022-12-17T08:25:24;19.90;;;10.17;;
5622;SDS011;2833;50.432;10.706;2022-12-17T08:28:08;19.20;;;10.60;;
5622;SDS011;2833;50.432;10.706;2022-12-17T08:30:51;19.53;;;9.97;;
5622;SDS011;2833;50.432;10.706;2022-12-17T08:33:36;17.53;;;10.00;;
5622;SDS011;2833;50.432;10.706;2022-12-17T08:36:20;22.40;;;10.00;;
5622;SDS011;2833;50.432;10.706;2022-12-17T08:39:03;21.53;;;12.20;;
5622;SDS011;2833;50.432;10.706;2022-12-17T08:41:47;19.50;;;10.70;;
5622;SDS011;2833;50.432;10.706;2022-12-17T08:44:31;20.03;;;11.43;;
5622;SDS011;2833;50.432;10.706;2022-12-17T08:47:15;16.87;;;9.83;;
5622;SDS011;2833;50.432;10.706;2022-12-17T08:49:59;18.27;;;10.10;;
5622;SDS011;2833;50.432;10.706;2022-12-17T08:52:43;19.00;;;9.93;;
5622;SDS011;2833;50.432;10.706;2022-12-17T08:55:27;20.67;;;11.50;;
5622;SDS011;2833;50.432;10.706;2022-12-17T08:58:11;34.40;;;16.97;;
5622;SDS011;2833;50.432;10.706;2022-12-17T09:00:58;34.10;;;20.20;;
5622;SDS011;2833;50.432;10.706;2022-12-17T09:03:42;19.70;;;9.90;;
5622;SDS011;2833;50.432;10.706;2022-12-17T09:06:26;16.57;;;9.00;;
5622;SDS011;2833;50.432;10.706;2022-12-17T09:09:10;28.47;;;14.77;;
5622;SDS011;2833;50.432;10.706;2022-12-17T09:11:54;84.00;;;42.70;;
5622;SDS011;2833;50.432;10.706;2022-12-17T09:14:37;49.63;;;31.40;;
5622;SDS011;2833;50.432;10.706;2022-12-17T09:17:21;24.87;;;15.07;;
5622;SDS011;2833;50.432;10.706;2022-12-17T09:20:05;30.33;;;15.80;;
5622;SDS011;2833;50.432;10.706;2022-12-17T09:22:49;20.37;;;12.43;;
5622;SDS011;2833;50.432;10.706;2022-12-17T09:25:33;28.13;;;15.40;;
5622;SDS011;2833;50.432;10.706;2022-12-17T09:28:17;25.57;;;15.00;;
5622;SDS011;2833;50.432;10.706;2022-12-17T09:31:01;26.33;;;12.43;;
5622;SDS011;2833;50.432;10.706;2022-12-17T09:33:45;39.00;;;22.03;;
5622;SDS011;2833;50.432;10.706;2022-12-17T09:36:34;24.73;;;14.23;;
5622;SDS011;2833;50.432;10.706;2022-12-17T09:39:18;20.90;;;11.20;;
5622;SDS011;2833;50.432;10.706;2022-12-17T09:44:53;16.37;;;10.20;;
5622;SDS011;2833;50.432;10.706;2022-12-17T09:47:41;17.33;;;10.07;;
5622;SDS011;2833;50.432;10.706;2022-12-17T09:50:29;16.97;;;8.50;;
5622;SDS011;2833;50.432;10.706;2022-12-17T09:53:18;32.40;;;20.00;;
5622;SDS011;2833;50.432;10.706;2022-12-17T09:56:02;18.47;;;9.83;;
5622;SDS011;2833;50.432;10.706;2022-12-17T09:58:46;16.77;;;8.80;;
5622;SDS011;2833;50.432;10.706;2022-12-17T10:01:33;13.07;;;7.67;;
5622;SDS011;2833;50.432;10.706;2022-12-17T10:04:37;14.03;;;8.43;;
5622;SDS011;2833;50.432;10.706;2022-12-17T10:07:23;18.17;;;11.77;;
5622;SDS011;2833;50.432;10.706;2022-12-17T10:10:28;13.37;;;7.00;;
5622;SDS011;2833;50.432;10.706;2022-12-17T10:13:14;15.37;;;7.80;;
5622;SDS011;2833;50.432;10.706;2022-12-17T10:15:57;18.27;;;6.60;;
5622;SDS011;2833;50.432;10.706;2022-12-17T10:18:41;12.53;;;5.97;;
5622;SDS011;2833;50.432;10.706;2022-12-17T10:21:25;15.83;;;6.10;;
5622;SDS011;2833;50.432;10.706;2022-12-17T10:24:10;10.77;;;6.83;;
5622;SDS011;2833;50.432;10.706;2022-12-17T10:26:54;14.67;;;7.77;;
5622;SDS011;2833;50.432;10.706;2022-12-17T10:29:38;6.47;;;4.20;;
5622;SDS011;2833;50.432;10.706;2022-12-17T10:32:23;10.87;;;7.10;;
5622;SDS011;2833;50.432;10.706;2022-12-17T10:35:08;13.20;;;8.27;;
5622;SDS011;2833;50.432;10.706;2022-12-17T10:37:54;12.37;;;6.90;;
5622;SDS011;2833;50.432;10.706;2022-12-17T10:40:38;14.43;;;7.93;;
5622;SDS011;2833;50.432;10.706;2022-12-17T10:43:24;15.13;;;7.83;;
5622;SDS011;2833;50.432;10.706;2022-12-17T10:46:08;13.77;;;6.87;;
5622;SDS011;2833;50.432;10.706;2022-12-17T10:49:02;11.80;;;6.50;;
5622;SDS011;2833;50.432;10.706;2022-12-17T10:51:46;17.37;;;8.60;;
5622;SDS011;2833;50.432;10.706;2022-12-17T10:54:31;8.33;;;5.10;;
5622;SDS011;2833;50.432;10.706;2022-12-17T11:03:05;13.00;;;6.80;;
5622;SDS011;2833;50.432;10.706;2022-12-17T11:05:50;13.20;;;6.93;;
5622;SDS011;2833;50.432;10.706;2022-12-17T11:08:34;13.70;;;7.77;;
5622;SDS011;2833;50.432;10.706;2022-12-17T11:11:18;11.97;;;6.67;;
5622;SDS011;2833;50.432;10.706;2022-12-17T11:14:02;13.70;;;6.90;;
5622;SDS011;2833;50.432;10.706;2022-12-17T11:16:49;14.77;;;7.90;;
5622;SDS011;2833;50.432;10.706;2022-12-17T11:19:54;10.90;;;5.87;;
5622;SDS011;2833;50.432;10.706;2022-12-17T11:22:43;11.87;;;6.00;;
5622;SDS011;2833;50.432;10.706;2022-12-17T11:25:38;11.83;;;6.27;;
5622;SDS011;2833;50.432;10.706;2022-12-17T11:28:24;11.30;;;6.07;;
5622;SDS011;2833;50.432;10.706;2022-12-17T11:37:06;6.83;;;3.93;;
5622;SDS011;2833;50.432;10.706;2022-12-17T11:43:39;16.40;;;6.23;;
5622;SDS011;2833;50.432;10.706;2022-12-17T11:48:38;18.30;;;7.20;;
5622;SDS011;2833;50.432;10.706;2022-12-17T11:51:33;20.17;;;10.77;;
5622;SDS011;2833;50.432;10.706;2022-12-17T11:54:28;15.43;;;7.40;;
5622;SDS011;2833;50.432;10.706;2022-12-17T11:57:26;14.03;;;6.30;;
5622;SDS011;2833;50.432;10.706;2022-12-17T12:00:15;13.20;;;6.50;;
5622;SDS011;2833;50.432;10.706;2022-12-17T12:06:02;12.30;;;6.70;;
5622;SDS011;2833;50.432;10.706;2022-12-17T12:09:03;14.23;;;5.90;;
5622;SDS011;2833;50.432;10.706;2022-12-17T12:18:03;13.33;;;6.80;;
5622;SDS011;2833;50.432;10.706;2022-12-17T12:20:51;14.70;;;7.40;;
5622;SDS011;2833;50.432;10.706;2022-12-17T12:23:50;15.20;;;9.10;;
5622;SDS011;2833;50.432;10.706;2022-12-17T12:26:42;16.13;;;9.20;;
5622;SDS011;2833;50.432;10.706;2022-12-17T12:29:31;17.97;;;9.83;;
5622;SDS011;2833;50.432;10.706;2022-12-17T12:32:21;16.60;;;8.73;;
5622;SDS011;2833;50.432;10.706;2022-12-17T12:35:10;20.13;;;10.97;;
5622;SDS011;2833;50.432;10.706;2022-12-17T12:37:56;27.70;;;12.07;;
5622;SDS011;2833;50.432;10.706;2022-12-17T12:40:54;21.33;;;10.90;;
5622;SDS011;2833;50.432;10.706;2022-12-17T12:43:43;19.37;;;10.30;;
5622;SDS011;2833;50.432;10.706;2022-12-17T12:46:34;23.00;;;11.43;;
5622;SDS011;2833;50.432;10.706;2022-12-17T12:52:03;19.60;;;10.97;;
5622;SDS011;2833;50.432;10.706;2022-12-17T12:54:53;22.97;;;11.53;;
5622;SDS011;2833;50.432;10.706;2022-12-17T13:03:25;22.63;;;11.80;;
5622;SDS011;2833;50.432;10.706;2022-12-17T13:06:11;19.53;;;11.80;;
5622;SDS011;2833;50.432;10.706;2022-12-17T13:08:37;23.00;;;11.17;;
5622;SDS011;2833;50.432;10.706;2022-12-17T13:11:10;21.17;;;12.33;;
5622;SDS011;2833;50.432;10.706;2022-12-17T13:13:36;49.63;;;19.67;;
5622;SDS011;2833;50.432;10.706;2022-12-17T13:16:15;102.80;;;40.67;;
5622;SDS011;2833;50.432;10.706;2022-12-17T13:18:45;19.50;;;10.40;;
5622;SDS011;2833;50.432;10.706;2022-12-17T13:23:41;24.03;;;12.80;;
5622;SDS011;2833;50.432;10.706;2022-12-17T13:26:12;19.67;;;11.47;;
5622;SDS011;2833;50.432;10.706;2022-12-17T13:28:37;24.97;;;12.13;;
5622;SDS011;2833;50.432;10.706;2022-12-17T13:31:04;29.20;;;11.90;;
5622;SDS011;2833;50.432;10.706;2022-12-17T13:33:36;22.60;;;12.30;;
5622;SDS011;2833;50.432;10.706;2022-12-17T13:41:06;25.83;;;12.90;;
5622;SDS011;2833;50.432;10.706;2022-12-17T13:43:36;21.87;;;11.20;;
5622;SDS011;2833;50.432;10.706;2022-12-17T13:46:02;31.90;;;12.60;;
5622;SDS011;2833;50.432;10.706;2022-12-17T13:48:27;20.93;;;11.77;;
5622;SDS011;2833;50.432;10.706;2022-12-17T13:51:00;21.70;;;11.80;;
5622;SDS011;2833;50.432;10.706;2022-12-17T13:53:26;31.10;;;11.90;;
5622;SDS011;2833;50.432;10.706;2022-12-17T13:55:53;23.00;;;11.50;;
5622;SDS011;2833;50.432;10.706;2022-12-17T13:58:24;20.70;;;11.23;;
5622;SDS011;2833;50.432;10.706;2022-12-17T14:00:49;20.80;;;12.37;;
5622;SDS011;2833;50.432;10.706;2022-12-17T14:03:21;16.47;;;9.87;;
5622;SDS011;2833;50.432;10.706;2022-12-17T14:05:47;16.37;;;9.63;;
5622;SDS011;2833;50.432;10.706;2022-12-17T14:08:14;19.83;;;10.33;;
5622;SDS011;2833;50.432;10.706;2022-12-17T14:10:43;21.63;;;12.43;;
5622;SDS011;2833;50.432;10.706;2022-12-17T14:13:12;21.43;;;12.07;;
5622;SDS011;2833;50.432;10.706;2022-12-17T14:15:38;31.33;;;14.07;;
5622;SDS011;2833;50.432;10.706;2022-12-17T14:18:09;22.80;;;12.53;;
5622;SDS011;2833;50.432;10.706;2022-12-17T14:20:37;31.67;;;16.57;;
5622;SDS011;2833;50.432;10.706;2022-12-17T14:23:05;25.57;;;13.30;;
5622;SDS011;2833;50.432;10.706;2022-12-17T14:25:35;25.30;;;13.37;;
5622;SDS011;2833;50.432;10.706;2022-12-17T14:30:32;22.83;;;11.77;;
5622;SDS011;2833;50.432;10.706;2022-12-17T14:32:59;18.07;;;10.77;;
5622;SDS011;2833;50.432;10.706;2022-12-17T14:37:49;16.27;;;9.73;;
5622;SDS011;2833;50.432;10.706;2022-12-17T14:40:14;16.60;;;9.47;;
5622;SDS011;2833;50.432;10.706;2022-12-17T14:42:40;19.20;;;10.10;;
5622;SDS011;2833;50.432;10.706;2022-12-17T14:45:16;15.33;;;9.03;;
5622;SDS011;2833;50.432;10.706;2022-12-17T14:47:56;19.20;;;10.40;;
5622;SDS011;2833;50.432;10.706;2022-12-17T14:50:32;21.03;;;10.00;;
5622;SDS011;2833;50.432;10.706;2022-12-17T14:52:58;21.70;;;9.90;;
5622;SDS011;2833;50.432;10.706;2022-12-17T14:57:53;14.70;;;8.50;;
5622;SDS011;2833;50.432;10.706;2022-12-17T15:00:19;15.60;;;8.83;;
5622;SDS011;2833;50.432;10.706;2022-12-17T15:02:49;15.97;;;8.93;;
5622;SDS011;2833;50.432;10.706;2022-12-17T15:05:15;18.80;;;9.37;;
5622;SDS011;2833;50.432;10.706;2022-12-17T15:07:40;16.70;;;9.23;;
5622;SDS011;2833;50.432;10.706;2022-12-17T15:10:09;17.60;;;11.00;;
5622;SDS011;2833;50.432;10.706;2022-12-17T15:12:35;20.40;;;10.60;;
5622;SDS011;2833;50.432;10.706;2022-12-17T15:15:00;21.60;;;11.00;;
5622;SDS011;2833;50.432;10.706;2022-12-17T15:17:26;16.13;;;9.70;;
5622;SDS011;2833;50.432;10.706;2022-12-17T15:19:51;18.90;;;9.70;;
5622;SDS011;2833;50.432;10.706;2022-12-17T15:22:16;19.43;;;11.30;;
5622;SDS011;2833;50.432;10.706;2022-12-17T15:24:42;19.80;;;11.60;;
5622;SDS011;2833;50.432;10.706;2022-12-17T15:27:12;21.83;;;11.43;;
5622;SDS011;2833;50.432;10.706;2022-12-17T15:29:37;21.40;;;11.10;;
5622;SDS011;2833;50.432;10.706;2022-12-17T15:32:02;22.53;;;11.50;;
5622;SDS011;2833;50.432;10.706;2022-12-17T15:34:28;21.23;;;12.07;;
5622;SDS011;2833;50.432;10.706;2022-12-17T15:36:53;24.10;;;12.10;;
5622;SDS011;2833;50.432;10.706;2022-12-17T15:39:18;25.50;;;13.87;;
5622;SDS011;2833;50.432;10.706;2022-12-17T15:41:43;22.63;;;12.00;;
5622;SDS011;2833;50.432;10.706;2022-12-17T15:44:27;24.57;;;12.83;;
5622;SDS011;2833;50.432;10.706;2022-12-17T15:46:52;26.73;;;15.00;;
5622;SDS011;2833;50.432;10.706;2022-12-17T15:49:18;29.10;;;15.40;;
5622;SDS011;2833;50.432;10.706;2022-12-17T15:51:43;38.70;;;15.73;;
5622;SDS011;2833;50.432;10.706;2022-12-17T15:54:08;56.10;;;27.50;;
5622;SDS011;2833;50.432;10.706;2022-12-17T15:56:33;118.00;;;58.20;;
5622;SDS011;2833;50.432;10.706;2022-12-17T15:59:01;68.07;;;39.60;;
5622;SDS011;2833;50.432;10.706;2022-12-17T16:01:26;33.70;;;19.80;;
5622;SDS011;2833;50.432;10.706;2022-12-17T16:03:51;25.77;;;13.93;;
5622;SDS011;2833;50.432;10.706;2022-12-17T16:06:16;20.73;;;12.30;;
5622;SDS011;2833;50.432;10.706;2022-12-17T16:08:42;20.83;;;11.50;;
5622;SDS011;2833;50.432;10.706;2022-12-17T16:11:07;21.90;;;12.50;;
5622;SDS011;2833;50.432;10.706;2022-12-17T16:13:33;20.57;;;11.53;;
5622;SDS011;2833;50.432;10.706;2022-12-17T16:15:58;25.47;;;13.23;;
5622;SDS011;2833;50.432;10.706;2022-12-17T16:18:24;21.73;;;12.80;;
5622;SDS011;2833;50.432;10.706;2022-12-17T16:20:49;26.70;;;14.40;;
5622;SDS011;2833;50.432;10.706;2022-12-17T16:23:15;27.33;;;15.10;;
5622;SDS011;2833;50.432;10.706;2022-12-17T16:25:40;32.47;;;15.17;;
5622;SDS011;2833;50.432;10.706;2022-12-17T16:28:05;26.03;;;14.40;;
5622;SDS011;2833;50.432;10.706;2022-12-17T16:30:31;20.90;;;12.37;;
5622;SDS011;2833;50.432;10.706;2022-12-17T16:32:56;25.93;;;14.27;;
5622;SDS011;2833;50.432;10.706;2022-12-17T16:35:22;24.30;;;13.60;;
5622;SDS011;2833;50.432;10.706;2022-12-17T16:37:48;28.67;;;14.13;;
5622;SDS011;2833;50.432;10.706;2022-12-17T16:40:13;23.03;;;14.17;;
5622;SDS011;2833;50.432;10.706;2022-12-17T16:42:38;25.20;;;14.53;;
5622;SDS011;2833;50.432;10.706;2022-12-17T16:45:04;31.97;;;15.17;;
5622;SDS011;2833;50.432;10.706;2022-12-17T16:47:29;30.77;;;14.70;;
5622;SDS011;2833;50.432;10.706;2022-12-17T16:49:54;22.37;;;12.70;;
5622;SDS011;2833;50.432;10.706;2022-12-17T16:52:19;25.87;;;14.23;;
5622;SDS011;2833;50.432;10.706;2022-12-17T16:54:45;28.60;;;16.20;;
5622;SDS011;2833;50.432;10.706;2022-12-17T16:57:10;34.60;;;16.20;;
5622;SDS011;2833;50.432;10.706;2022-12-17T16:59:35;34.77;;;16.10;;